createdAt,value
2022-08-19T00:00:13.488Z,18.07
2022-08-19T00:01:13.478Z,18.07
2022-08-19T00:02:13.459Z,18.05
2022-08-19T00:03:13.447Z,18.03
2022-08-19T00:04:13.427Z,18.05
2022-08-19T00:05:13.428Z,18.02
2022-08-19T00:06:13.406Z,18.02
2022-08-19T00:07:13.395Z,17.99
2022-08-19T00:08:13.375Z,17.99
2022-08-19T00:09:13.384Z,17.97
2022-08-19T00:10:13.363Z,17.96
2022-08-19T00:11:18.596Z,17.95
2022-08-19T00:12:14.326Z,17.95
2022-08-19T00:13:13.318Z,17.93
2022-08-19T00:14:13.298Z,17.92
2022-08-19T00:15:13.305Z,17.90
2022-08-19T00:16:13.278Z,17.90
2022-08-19T00:17:13.266Z,17.90
2022-08-19T00:18:13.255Z,17.89
2022-08-19T00:19:13.246Z,17.89
2022-08-19T00:20:13.254Z,17.89
2022-08-19T00:21:13.224Z,17.87
2022-08-19T00:22:13.215Z,17.87
2022-08-19T00:23:13.184Z,17.87
2022-08-19T00:24:13.174Z,17.87
2022-08-19T00:25:13.155Z,17.86
2022-08-19T00:26:13.155Z,17.84
2022-08-19T00:27:25.656Z,17.82
2022-08-19T00:28:14.114Z,17.82
2022-08-19T00:29:13.105Z,17.81
2022-08-19T00:30:13.094Z,17.81
2022-08-19T00:31:13.124Z,17.79
2022-08-19T00:32:13.063Z,17.81
2022-08-19T00:33:13.063Z,17.81
2022-08-19T00:34:13.050Z,17.81
2022-08-19T00:35:13.032Z,17.79
2022-08-19T00:36:13.012Z,17.78
2022-08-19T00:37:13.012Z,17.78
2022-08-19T00:38:12.995Z,17.77
2022-08-19T00:39:12.988Z,17.77
2022-08-19T00:40:12.991Z,17.75
2022-08-19T00:41:12.954Z,17.74
2022-08-19T00:42:15.639Z,17.72
2022-08-19T00:43:12.922Z,17.71
2022-08-19T00:44:12.913Z,17.70
2022-08-19T00:45:12.905Z,17.68
2022-08-19T00:46:12.888Z,17.68
2022-08-19T00:47:14.098Z,17.66
2022-08-19T00:48:15.214Z,17.63
2022-08-19T00:49:12.841Z,17.63
2022-08-19T00:50:12.841Z,17.62
2022-08-19T00:51:12.853Z,17.62
2022-08-19T00:52:12.840Z,17.62
2022-08-19T00:53:12.792Z,17.59
2022-08-19T00:54:12.782Z,17.58
2022-08-19T00:55:12.771Z,17.58
2022-08-19T00:56:12.760Z,17.58
2022-08-19T00:57:12.741Z,17.56
2022-08-19T00:58:12.741Z,17.56
2022-08-19T00:59:12.711Z,17.55
2022-08-19T01:00:12.713Z,17.54
2022-08-19T01:01:12.718Z,17.54
2022-08-19T01:02:12.690Z,17.51
2022-08-19T01:03:12.671Z,17.52
2022-08-19T01:04:12.652Z,17.49
2022-08-19T01:05:12.652Z,17.49
2022-08-19T01:06:12.630Z,17.51
2022-08-19T01:07:17.339Z,17.46
2022-08-19T01:08:13.610Z,17.46
2022-08-19T01:09:12.628Z,17.46
2022-08-19T01:10:12.573Z,17.46
2022-08-19T01:11:12.559Z,17.46
2022-08-19T01:12:12.543Z,17.46
2022-08-19T01:13:12.530Z,17.44
2022-08-19T01:14:12.529Z,17.46
2022-08-19T01:15:12.512Z,17.44
2022-08-19T01:16:12.493Z,17.43
2022-08-19T01:17:12.479Z,17.43
2022-08-19T01:18:12.471Z,17.43
2022-08-19T01:19:12.474Z,17.41
2022-08-19T01:20:12.441Z,17.43
2022-08-19T01:21:12.429Z,17.41
2022-08-19T01:22:14.139Z,17.40
2022-08-19T01:23:12.399Z,17.38
2022-08-19T01:24:12.408Z,17.38
2022-08-19T01:25:14.829Z,17.36
2022-08-19T01:26:12.369Z,17.36
2022-08-19T01:27:12.349Z,17.34
2022-08-19T01:28:12.338Z,17.34
2022-08-19T01:29:12.351Z,17.33
2022-08-19T01:30:12.310Z,17.33
2022-08-19T01:31:12.298Z,17.34
2022-08-19T01:32:32.372Z,17.33
2022-08-19T01:33:13.277Z,17.33
2022-08-19T01:34:12.257Z,17.33
2022-08-19T01:35:12.347Z,17.33
2022-08-19T01:36:12.249Z,17.31
2022-08-19T01:37:12.227Z,17.31
2022-08-19T01:38:12.516Z,17.28
2022-08-19T01:39:12.190Z,17.28
2022-08-19T01:40:12.231Z,17.26
2022-08-19T01:41:12.161Z,17.25
2022-08-19T01:42:12.158Z,17.25
2022-08-19T01:43:12.135Z,17.25
2022-08-19T01:44:17.511Z,17.22
2022-08-19T01:45:13.127Z,17.23
2022-08-19T01:46:12.109Z,17.25
2022-08-19T01:47:12.097Z,17.22
2022-08-19T01:48:12.068Z,17.22
2022-08-19T01:49:12.060Z,17.21
2022-08-19T01:50:12.077Z,17.21
2022-08-19T01:51:12.071Z,17.21
2022-08-19T01:52:12.026Z,17.21
2022-08-19T01:53:12.010Z,17.21
2022-08-19T01:54:11.998Z,17.19
2022-08-19T01:55:11.976Z,17.18
2022-08-19T01:56:11.995Z,17.18
2022-08-19T01:57:11.956Z,17.16
2022-08-19T01:58:11.939Z,17.18
2022-08-19T01:59:11.945Z,17.16
2022-08-19T02:00:11.916Z,17.15
2022-08-19T02:01:11.929Z,17.14
2022-08-19T02:02:11.909Z,17.14
2022-08-19T02:03:11.885Z,17.12
2022-08-19T02:04:11.864Z,17.12
2022-08-19T02:05:11.846Z,17.11
2022-08-19T02:06:11.846Z,17.08
2022-08-19T02:07:11.843Z,17.07
2022-08-19T02:08:11.814Z,17.07
2022-08-19T02:09:11.794Z,17.06
2022-08-19T02:10:12.406Z,17.06
2022-08-19T02:11:11.774Z,17.03
2022-08-19T02:12:18.493Z,17.04
2022-08-19T02:13:11.754Z,17.06
2022-08-19T02:14:11.725Z,17.06
2022-08-19T02:15:11.724Z,17.06
2022-08-19T02:16:11.703Z,17.04
2022-08-19T02:17:11.703Z,17.04
2022-08-19T02:18:11.695Z,17.04
2022-08-19T02:19:11.665Z,17.01
2022-08-19T02:20:11.654Z,17.00
2022-08-19T02:21:11.643Z,17.00
2022-08-19T02:22:11.632Z,16.98
2022-08-19T02:23:13.380Z,16.97
2022-08-19T02:24:11.604Z,16.97
2022-08-19T02:25:11.592Z,16.96
2022-08-19T02:26:11.574Z,16.94
2022-08-19T02:27:11.572Z,16.96
2022-08-19T02:28:14.508Z,16.96
2022-08-19T02:29:12.561Z,16.94
2022-08-19T02:30:14.213Z,16.93
2022-08-19T02:31:11.512Z,16.93
2022-08-19T02:32:11.504Z,16.91
2022-08-19T02:33:11.494Z,16.91
2022-08-19T02:34:11.462Z,16.93
2022-08-19T02:35:12.140Z,16.91
2022-08-19T02:36:11.451Z,16.89
2022-08-19T02:37:11.442Z,16.91
2022-08-19T02:38:11.419Z,16.91
2022-08-19T02:39:11.413Z,16.89
2022-08-19T02:40:12.568Z,16.89
2022-08-19T02:41:11.382Z,16.89
2022-08-19T02:42:11.371Z,16.88
2022-08-19T02:43:11.351Z,16.89
2022-08-19T02:44:28.693Z,16.89
2022-08-19T02:45:12.350Z,16.91
2022-08-19T02:46:11.311Z,16.89
2022-08-19T02:47:11.301Z,16.89
2022-08-19T02:48:17.925Z,16.89
2022-08-19T02:49:12.325Z,16.89
2022-08-19T02:50:11.252Z,16.86
2022-08-19T02:51:11.252Z,16.86
2022-08-19T02:52:11.230Z,16.86
2022-08-19T02:53:11.220Z,16.86
2022-08-19T02:54:11.210Z,16.83
2022-08-19T02:55:11.190Z,16.82
2022-08-19T02:56:11.196Z,16.82
2022-08-19T02:57:11.170Z,16.81
2022-08-19T02:58:11.148Z,16.81
2022-08-19T02:59:11.532Z,16.82
2022-08-19T03:00:11.119Z,16.81
2022-08-19T03:01:11.164Z,16.81
2022-08-19T03:02:11.111Z,16.82
2022-08-19T03:03:11.088Z,16.82
2022-08-19T03:04:11.091Z,16.82
2022-08-19T03:05:11.083Z,16.82
2022-08-19T03:06:11.054Z,16.82
2022-08-19T03:07:11.460Z,16.82
2022-08-19T03:08:11.020Z,16.81
2022-08-19T03:09:11.007Z,16.81
2022-08-19T03:10:10.996Z,16.81
2022-08-19T03:11:10.980Z,16.81
2022-08-19T03:12:10.958Z,16.79
2022-08-19T03:13:10.976Z,16.81
2022-08-19T03:14:10.944Z,16.81
2022-08-19T03:15:10.928Z,16.82
2022-08-19T03:16:10.918Z,16.81
2022-08-19T03:17:10.906Z,16.82
2022-08-19T03:18:10.908Z,16.81
2022-08-19T03:19:10.873Z,16.81
2022-08-19T03:20:10.859Z,16.82
2022-08-19T03:21:12.546Z,16.82
2022-08-19T03:22:10.829Z,16.79
2022-08-19T03:23:10.817Z,16.79
2022-08-19T03:24:10.817Z,16.81
2022-08-19T03:25:10.812Z,16.78
2022-08-19T03:26:15.958Z,16.76
2022-08-19T03:27:11.769Z,16.76
2022-08-19T03:28:10.756Z,16.73
2022-08-19T03:29:10.756Z,16.73
2022-08-19T03:30:11.760Z,16.71
2022-08-19T03:31:45.548Z,16.70
2022-08-19T03:32:27.904Z,16.70
2022-08-19T03:33:11.691Z,16.70
2022-08-19T03:34:11.705Z,16.68
2022-08-19T03:35:10.656Z,16.70
2022-08-19T03:36:10.645Z,16.67
2022-08-19T03:37:10.638Z,16.68
2022-08-19T03:38:10.616Z,16.66
2022-08-19T03:39:10.643Z,16.66
2022-08-19T03:40:10.671Z,16.64
2022-08-19T03:41:11.585Z,16.66
2022-08-19T03:42:32.340Z,16.64
2022-08-19T03:43:11.560Z,16.66
2022-08-19T03:44:11.036Z,16.66
2022-08-19T03:45:11.536Z,16.68
2022-08-19T03:46:10.506Z,16.71
2022-08-19T03:47:10.503Z,16.71
2022-08-19T03:48:10.483Z,16.71
2022-08-19T03:49:10.481Z,16.68
2022-08-19T03:50:10.475Z,16.68
2022-08-19T03:51:10.456Z,16.70
2022-08-19T03:52:10.436Z,16.68
2022-08-19T03:53:10.414Z,16.67
2022-08-19T03:54:10.403Z,16.67
2022-08-19T03:55:10.404Z,16.66
2022-08-19T03:56:10.373Z,16.67
2022-08-19T03:57:10.365Z,16.64
2022-08-19T03:58:10.351Z,16.64
2022-08-19T03:59:10.333Z,16.63
2022-08-19T04:00:13.374Z,16.64
2022-08-19T04:01:10.371Z,16.64
2022-08-19T04:02:10.375Z,16.64
2022-08-19T04:03:10.282Z,16.66
2022-08-19T04:04:10.271Z,16.67
2022-08-19T04:05:10.271Z,16.67
2022-08-19T04:06:10.250Z,16.68
2022-08-19T04:07:10.234Z,16.68
2022-08-19T04:08:13.770Z,16.67
2022-08-19T04:09:10.207Z,16.66
2022-08-19T04:10:10.642Z,16.67
2022-08-19T04:11:10.192Z,16.67
2022-08-19T04:12:10.166Z,16.68
2022-08-19T04:13:10.165Z,16.67
2022-08-19T04:14:10.131Z,16.64
2022-08-19T04:15:10.124Z,16.63
2022-08-19T04:16:10.121Z,16.61
2022-08-19T04:17:10.091Z,16.61
2022-08-19T04:18:10.081Z,16.60
2022-08-19T04:19:10.072Z,16.57
2022-08-19T04:20:10.101Z,16.57
2022-08-19T04:21:10.052Z,16.58
2022-08-19T04:22:10.023Z,16.57
2022-08-19T04:23:10.021Z,16.57
2022-08-19T04:24:10.001Z,16.56
2022-08-19T04:25:10.001Z,16.53
2022-08-19T04:26:09.991Z,16.53
2022-08-19T04:27:09.969Z,16.52
2022-08-19T04:28:09.949Z,16.52
2022-08-19T04:29:12.580Z,16.52
2022-08-19T04:30:09.948Z,16.52
2022-08-19T04:31:09.922Z,16.52
2022-08-19T04:32:10.113Z,16.50
2022-08-19T04:33:09.890Z,16.53
2022-08-19T04:34:09.870Z,16.56
2022-08-19T04:35:18.595Z,16.53
2022-08-19T04:36:10.850Z,16.56
2022-08-19T04:37:09.842Z,16.57
2022-08-19T04:38:09.818Z,16.58
2022-08-19T04:39:09.802Z,16.60
2022-08-19T04:40:09.856Z,16.64
2022-08-19T04:41:09.800Z,16.66
2022-08-19T04:42:09.757Z,16.71
2022-08-19T04:43:09.769Z,16.71
2022-08-19T04:44:09.746Z,16.73
2022-08-19T04:45:09.737Z,16.73
2022-08-19T04:46:09.728Z,16.73
2022-08-19T04:47:11.205Z,16.75
2022-08-19T04:48:26.735Z,16.73
2022-08-19T04:49:13.142Z,16.75
2022-08-19T04:50:09.676Z,16.76
2022-08-19T04:51:09.659Z,16.76
2022-08-19T04:52:09.626Z,16.78
2022-08-19T04:53:09.636Z,16.78
2022-08-19T04:54:09.598Z,16.79
2022-08-19T04:55:09.597Z,16.81
2022-08-19T04:56:09.595Z,16.85
2022-08-19T04:57:09.739Z,16.86
2022-08-19T04:58:09.555Z,16.89
2022-08-19T04:59:09.539Z,16.89
2022-08-19T05:00:09.517Z,16.93
2022-08-19T05:01:09.564Z,16.93
2022-08-19T05:02:09.516Z,16.96
2022-08-19T05:03:09.498Z,16.97
2022-08-19T05:04:09.471Z,16.98
2022-08-19T05:05:09.467Z,17.00
2022-08-19T05:06:09.458Z,17.01
2022-08-19T05:07:09.455Z,17.01
2022-08-19T05:08:09.424Z,17.03
2022-08-19T05:09:09.405Z,17.06
2022-08-19T05:10:09.395Z,17.06
2022-08-19T05:11:09.386Z,17.07
2022-08-19T05:12:09.366Z,17.08
2022-08-19T05:13:09.358Z,17.12
2022-08-19T05:14:09.349Z,17.15
2022-08-19T05:15:09.360Z,17.18
2022-08-19T05:16:09.326Z,17.21
2022-08-19T05:17:26.491Z,17.22
2022-08-19T05:18:10.285Z,17.25
2022-08-19T05:19:09.294Z,17.26
2022-08-19T05:20:09.264Z,17.31
2022-08-19T05:21:09.264Z,17.33
2022-08-19T05:22:09.253Z,17.36
2022-08-19T05:23:13.071Z,17.40
2022-08-19T05:24:10.218Z,17.38
2022-08-19T05:25:13.172Z,17.43
2022-08-19T05:26:09.193Z,17.46
2022-08-19T05:27:09.164Z,17.48
2022-08-19T05:28:09.162Z,17.51
2022-08-19T05:29:09.143Z,17.54
2022-08-19T05:30:09.133Z,17.54
2022-08-19T05:31:09.136Z,17.56
2022-08-19T05:32:09.103Z,17.59
2022-08-19T05:33:09.104Z,17.62
2022-08-19T05:34:18.512Z,17.63
2022-08-19T05:35:10.063Z,17.64
2022-08-19T05:36:09.063Z,17.66
2022-08-19T05:37:09.043Z,17.70
2022-08-19T05:38:09.025Z,17.71
2022-08-19T05:39:09.022Z,17.71
2022-08-19T05:40:09.187Z,17.74
2022-08-19T05:41:08.993Z,17.75
2022-08-19T05:42:08.983Z,17.77
2022-08-19T05:43:08.962Z,17.78
2022-08-19T05:44:08.947Z,17.79
2022-08-19T05:45:08.933Z,17.82
2022-08-19T05:46:08.931Z,17.84
2022-08-19T05:47:08.915Z,17.86
2022-08-19T05:48:08.910Z,17.89
2022-08-19T05:49:08.883Z,17.90
2022-08-19T05:50:08.863Z,17.93
2022-08-19T05:51:08.874Z,17.96
2022-08-19T05:52:08.844Z,17.97
2022-08-19T05:53:08.831Z,18.00
2022-08-19T05:54:08.823Z,18.02
2022-08-19T05:55:08.810Z,18.05
2022-08-19T05:56:08.801Z,18.08
2022-08-19T05:57:08.771Z,18.11
2022-08-19T05:58:08.802Z,18.12
2022-08-19T05:59:08.751Z,18.15
2022-08-19T06:00:08.755Z,18.20
2022-08-19T06:01:08.741Z,18.21
2022-08-19T06:02:08.763Z,18.26
2022-08-19T06:03:11.884Z,18.29
2022-08-19T06:04:08.689Z,18.33
2022-08-19T06:05:08.684Z,18.37
2022-08-19T06:06:08.662Z,18.41
2022-08-19T06:07:12.367Z,18.47
2022-08-19T06:08:08.630Z,18.51
2022-08-19T06:09:08.622Z,18.55
2022-08-19T06:10:08.607Z,18.60
2022-08-19T06:11:08.610Z,18.63
2022-08-19T06:12:08.580Z,18.69
2022-08-19T06:13:08.568Z,18.70
2022-08-19T06:14:08.549Z,18.76
2022-08-19T06:15:09.541Z,18.80
2022-08-19T06:16:08.539Z,18.81
2022-08-19T06:17:08.518Z,18.87
2022-08-19T06:18:08.500Z,18.88
2022-08-19T06:19:08.498Z,18.92
2022-08-19T06:20:08.469Z,18.95
2022-08-19T06:21:08.478Z,18.99
2022-08-19T06:22:08.557Z,19.02
2022-08-19T06:23:08.447Z,19.06
2022-08-19T06:24:08.418Z,19.10
2022-08-19T06:25:08.417Z,19.13
2022-08-19T06:26:08.409Z,19.16
2022-08-19T06:27:08.378Z,19.21
2022-08-19T06:28:15.778Z,19.25
2022-08-19T06:29:09.357Z,19.29
2022-08-19T06:30:08.348Z,19.36
2022-08-19T06:31:08.367Z,19.39
2022-08-19T06:32:08.318Z,19.43
2022-08-19T06:33:08.310Z,19.47
2022-08-19T06:34:08.297Z,19.54
2022-08-19T06:35:08.287Z,19.59
2022-08-19T06:36:08.280Z,19.62
2022-08-19T06:37:08.260Z,19.66
2022-08-19T06:38:08.239Z,19.73
2022-08-19T06:39:08.226Z,19.77
2022-08-19T06:40:08.254Z,19.83
2022-08-19T06:41:08.272Z,19.86
2022-08-19T06:42:09.702Z,19.88
2022-08-19T06:43:09.396Z,19.95
2022-08-19T06:44:08.157Z,19.98
2022-08-19T06:45:09.520Z,20.01
2022-08-19T06:46:08.146Z,20.05
2022-08-19T06:47:14.350Z,20.10
2022-08-19T06:48:09.109Z,20.14
2022-08-19T06:49:08.105Z,20.17
2022-08-19T06:50:08.090Z,20.21
2022-08-19T06:51:08.698Z,20.26
2022-08-19T06:52:08.066Z,20.31
2022-08-19T06:53:08.037Z,20.33
2022-08-19T06:54:08.037Z,20.39
2022-08-19T06:55:09.015Z,20.42
2022-08-19T06:56:08.026Z,20.50
2022-08-19T06:57:07.988Z,20.52
2022-08-19T06:58:07.974Z,20.57
2022-08-19T06:59:07.966Z,20.61
2022-08-19T07:00:10.926Z,20.66
2022-08-19T07:01:09.289Z,20.72
2022-08-19T07:02:07.986Z,20.77
2022-08-19T07:03:08.976Z,20.84
2022-08-19T07:04:07.895Z,20.88
2022-08-19T07:05:07.884Z,20.89
2022-08-19T07:06:09.879Z,20.92
2022-08-19T07:07:19.781Z,20.95
2022-08-19T07:08:08.855Z,20.99
2022-08-19T07:09:07.826Z,21.03
2022-08-19T07:10:07.956Z,21.07
2022-08-19T07:11:09.277Z,21.09
2022-08-19T07:12:07.795Z,21.09
2022-08-19T07:13:07.774Z,21.13
2022-08-19T07:14:07.775Z,21.14
2022-08-19T07:15:08.743Z,21.16
2022-08-19T07:16:07.754Z,21.24
2022-08-19T07:17:07.723Z,21.31
2022-08-19T07:18:07.715Z,21.37
2022-08-19T07:19:15.695Z,21.46
2022-08-19T07:20:09.689Z,21.53
2022-08-19T07:21:09.509Z,21.61
2022-08-19T07:22:07.671Z,21.68
2022-08-19T07:23:08.643Z,21.75
2022-08-19T07:24:07.643Z,21.84
2022-08-19T07:25:07.615Z,21.91
2022-08-19T07:26:07.629Z,21.94
2022-08-19T07:27:15.069Z,22.00
2022-08-19T07:28:08.612Z,22.07
2022-08-19T07:29:08.563Z,22.17
2022-08-19T07:30:07.556Z,22.24
2022-08-19T07:31:07.562Z,22.30
2022-08-19T07:32:07.544Z,22.31
2022-08-19T07:33:08.524Z,22.37
2022-08-19T07:34:07.502Z,22.42
2022-08-19T07:35:07.493Z,22.45
2022-08-19T07:36:07.502Z,22.45
2022-08-19T07:37:07.477Z,22.47
2022-08-19T07:38:07.451Z,22.49
2022-08-19T07:39:07.438Z,22.51
2022-08-19T07:40:07.457Z,22.54
2022-08-19T07:41:07.423Z,22.57
2022-08-19T07:42:07.396Z,22.60
2022-08-19T07:43:10.165Z,22.60
2022-08-19T07:44:08.375Z,22.64
2022-08-19T07:45:07.355Z,22.68
2022-08-19T07:47:07.332Z,22.77
2022-08-19T07:48:08.325Z,22.83
2022-08-19T07:49:07.311Z,22.90
2022-08-19T07:50:07.744Z,22.94
2022-08-19T07:51:07.292Z,22.95
2022-08-19T07:52:07.271Z,22.98
2022-08-19T07:53:07.261Z,23.01
2022-08-19T07:54:07.252Z,22.98
2022-08-19T07:55:07.231Z,23.00
2022-08-19T07:56:08.223Z,23.04
2022-08-19T07:57:07.202Z,23.07
2022-08-19T07:58:07.192Z,23.13
2022-08-19T07:59:07.174Z,23.17
2022-08-19T08:00:07.161Z,23.22
2022-08-19T08:01:07.163Z,23.16
2022-08-19T08:02:07.163Z,23.19
2022-08-19T08:03:07.123Z,23.25
2022-08-19T08:04:07.111Z,23.31
2022-08-19T08:05:07.101Z,23.38
2022-08-19T08:06:07.103Z,23.42
2022-08-19T08:07:07.061Z,23.51
2022-08-19T08:08:07.063Z,23.53
2022-08-19T08:09:07.126Z,23.53
2022-08-19T08:10:08.550Z,23.54
2022-08-19T08:11:08.330Z,23.58
2022-08-19T08:12:33.151Z,23.63
2022-08-19T08:13:10.387Z,23.70
2022-08-19T08:14:06.980Z,23.72
2022-08-19T08:15:08.234Z,23.79
2022-08-19T08:16:06.959Z,23.85
2022-08-19T08:17:10.912Z,23.93
2022-08-19T08:18:06.943Z,23.94
2022-08-19T08:19:14.690Z,23.94
2022-08-19T08:20:07.902Z,23.95
2022-08-19T08:21:06.909Z,24.02
2022-08-19T08:22:06.870Z,24.05
2022-08-19T08:23:06.863Z,24.09
2022-08-19T08:24:06.847Z,24.16
2022-08-19T08:25:06.837Z,24.24
2022-08-19T08:26:06.829Z,24.35
2022-08-19T08:27:11.316Z,24.50
2022-08-19T08:28:06.789Z,24.61
2022-08-19T08:29:12.302Z,24.67
2022-08-19T08:30:07.759Z,24.71
2022-08-19T08:31:09.361Z,24.68
2022-08-19T08:32:14.795Z,24.71
2022-08-19T08:33:07.764Z,24.76
2022-08-19T08:34:06.708Z,24.69
2022-08-19T08:35:06.720Z,24.78
2022-08-19T08:36:06.704Z,24.85
2022-08-19T08:37:06.678Z,24.90
2022-08-19T08:38:06.659Z,24.95
2022-08-19T08:39:06.650Z,25.00
2022-08-19T08:40:08.088Z,25.09
2022-08-19T08:41:06.640Z,25.15
2022-08-19T08:42:10.283Z,25.23
2022-08-19T08:43:11.172Z,25.23
2022-08-19T08:44:06.588Z,25.20
2022-08-19T08:45:06.578Z,25.18
2022-08-19T08:46:06.581Z,25.20
2022-08-19T08:47:07.927Z,25.28
2022-08-19T08:48:06.530Z,25.36
2022-08-19T08:49:07.522Z,25.42
2022-08-19T08:50:06.508Z,25.45
2022-08-19T08:51:06.507Z,25.47
2022-08-19T08:52:06.489Z,25.50
2022-08-19T08:53:06.479Z,25.52
2022-08-19T08:54:06.458Z,25.60
2022-08-19T08:55:10.100Z,25.55
2022-08-19T08:56:06.458Z,25.52
2022-08-19T08:57:06.427Z,25.64
2022-08-19T08:58:06.410Z,25.75
2022-08-19T08:59:06.399Z,25.79
2022-08-19T09:00:06.377Z,25.91
2022-08-19T09:01:07.454Z,26.10
2022-08-19T09:02:06.357Z,26.20
2022-08-19T09:03:06.337Z,26.28
2022-08-19T09:04:06.338Z,26.44
2022-08-19T09:05:06.319Z,26.55
2022-08-19T09:06:06.315Z,26.66
2022-08-19T09:07:18.177Z,26.72
2022-08-19T09:08:07.283Z,26.87
2022-08-19T09:09:11.730Z,26.99
2022-08-19T09:10:07.248Z,27.12
2022-08-19T09:11:06.238Z,27.28
2022-08-19T09:12:06.227Z,27.40
2022-08-19T09:13:09.488Z,27.55
2022-08-19T09:14:06.188Z,27.51
2022-08-19T09:15:06.189Z,27.44
2022-08-19T09:16:06.178Z,27.43
2022-08-19T09:17:06.158Z,27.47
2022-08-19T09:18:07.184Z,27.57
2022-08-19T09:19:06.370Z,27.66
2022-08-19T09:20:06.109Z,27.77
2022-08-19T09:21:06.118Z,27.87
2022-08-19T09:22:06.087Z,27.90
2022-08-19T09:23:06.078Z,28.04
2022-08-19T09:24:06.057Z,28.14
2022-08-19T09:25:06.052Z,28.22
2022-08-19T09:26:06.048Z,28.34
2022-08-19T09:27:08.394Z,28.44
2022-08-19T09:28:20.326Z,28.34
2022-08-19T09:29:06.998Z,28.29
2022-08-19T09:30:05.978Z,28.27
2022-08-19T09:31:05.988Z,28.29
2022-08-19T09:32:05.958Z,28.31
2022-08-19T09:33:06.948Z,28.27
2022-08-19T09:34:06.102Z,28.18
2022-08-19T09:35:08.766Z,28.19
2022-08-19T09:36:08.680Z,28.18
2022-08-19T09:37:05.888Z,28.21
2022-08-19T09:38:05.879Z,28.36
2022-08-19T09:39:16.296Z,28.46
2022-08-19T09:40:06.914Z,28.51
2022-08-19T09:41:05.847Z,28.52
2022-08-19T09:42:05.820Z,28.52
2022-08-19T09:43:11.424Z,28.51
2022-08-19T09:44:06.953Z,28.46
2022-08-19T09:45:10.525Z,28.40
2022-08-19T09:46:05.788Z,28.46
2022-08-19T09:47:05.765Z,28.43
2022-08-19T09:48:05.747Z,28.30
2022-08-19T09:49:06.269Z,28.27
2022-08-19T09:50:05.719Z,28.37
2022-08-19T09:51:05.725Z,28.40
2022-08-19T09:52:05.697Z,28.49
2022-08-19T09:53:05.677Z,28.49
2022-08-19T09:54:05.669Z,28.37
2022-08-19T09:55:07.168Z,28.30
2022-08-19T09:56:05.648Z,28.31
2022-08-19T09:57:07.687Z,28.14
2022-08-19T09:58:05.627Z,28.00
2022-08-19T09:59:05.615Z,27.94
2022-08-19T10:00:05.597Z,27.90
2022-08-19T10:01:05.653Z,27.93
2022-08-19T10:02:10.699Z,28.00
2022-08-19T10:03:07.123Z,28.06
2022-08-19T10:04:14.714Z,28.00
2022-08-19T10:05:06.528Z,28.09
2022-08-19T10:06:05.637Z,28.22
2022-08-19T10:07:06.557Z,28.37
2022-08-19T10:08:05.537Z,28.43
2022-08-19T10:09:06.537Z,28.40
2022-08-19T10:10:05.601Z,28.48
2022-08-19T10:11:27.895Z,28.66
2022-08-19T10:12:06.438Z,28.71
2022-08-19T10:13:05.426Z,28.80
2022-08-19T10:14:05.417Z,28.90
2022-08-19T10:15:05.399Z,29.02
2022-08-19T10:16:05.417Z,29.02
2022-08-19T10:17:19.300Z,29.14
2022-08-19T10:18:06.368Z,29.31
2022-08-19T10:19:05.928Z,29.49
2022-08-19T10:20:05.337Z,29.48
2022-08-19T10:21:05.334Z,29.36
2022-08-19T10:22:05.324Z,29.41
2022-08-19T10:23:05.298Z,29.46
2022-08-19T10:24:05.296Z,29.55
2022-08-19T10:25:05.268Z,29.64
2022-08-19T10:26:05.278Z,29.61
2022-08-19T10:27:05.249Z,29.67
2022-08-19T10:28:05.279Z,29.79
2022-08-19T10:29:06.265Z,29.97
2022-08-19T10:30:05.207Z,30.17
2022-08-19T10:31:06.209Z,30.34
2022-08-19T10:32:05.211Z,30.42
2022-08-19T10:33:08.576Z,30.37
2022-08-19T10:34:06.165Z,30.35
2022-08-19T10:35:06.107Z,30.32
2022-08-19T10:36:05.156Z,30.29
2022-08-19T10:37:05.117Z,30.24
2022-08-19T10:38:06.315Z,30.07
2022-08-19T10:39:05.097Z,30.05
2022-08-19T10:40:05.135Z,30.17
2022-08-19T10:41:05.078Z,30.20
2022-08-19T10:42:05.057Z,30.19
2022-08-19T10:43:05.047Z,30.26
2022-08-19T10:44:05.041Z,30.27
2022-08-19T10:45:05.088Z,30.23
2022-08-19T10:46:05.017Z,30.19
2022-08-19T10:47:04.987Z,30.05
2022-08-19T10:48:05.978Z,29.90
2022-08-19T10:49:04.968Z,29.86
2022-08-19T10:50:04.968Z,29.89
2022-08-19T10:51:04.969Z,29.89
2022-08-19T10:52:04.938Z,29.85
2022-08-19T10:53:08.070Z,29.92
2022-08-19T10:54:06.763Z,30.00
2022-08-19T10:55:08.327Z,30.08
2022-08-19T10:56:04.920Z,30.23
2022-08-19T10:57:04.868Z,30.34
2022-08-19T10:58:05.044Z,30.46
2022-08-19T10:59:04.838Z,30.58
2022-08-19T11:00:04.828Z,30.69
2022-08-19T11:01:04.886Z,30.73
2022-08-19T11:02:04.809Z,30.82
2022-08-19T11:03:04.827Z,30.92
2022-08-19T11:04:04.778Z,31.07
2022-08-19T11:05:12.446Z,31.20
2022-08-19T11:06:05.761Z,31.32
2022-08-19T11:07:04.741Z,31.36
2022-08-19T11:08:17.643Z,31.31
2022-08-19T11:09:05.709Z,31.16
2022-08-19T11:10:04.708Z,30.75
2022-08-19T11:11:04.699Z,30.49
2022-08-19T11:12:04.860Z,30.27
2022-08-19T11:13:04.657Z,30.11
2022-08-19T11:14:04.686Z,30.01
2022-08-19T11:15:04.640Z,29.97
2022-08-19T11:16:07.638Z,30.04
2022-08-19T11:17:04.608Z,30.19
2022-08-19T11:18:04.606Z,30.29
2022-08-19T11:19:05.588Z,30.47
2022-08-19T11:20:04.569Z,30.61
2022-08-19T11:21:04.579Z,30.64
2022-08-19T11:22:04.550Z,30.53
2022-08-19T11:23:04.528Z,30.35
2022-08-19T11:24:04.529Z,30.26
2022-08-19T11:25:04.520Z,30.13
2022-08-19T11:26:04.518Z,30.00
2022-08-19T11:27:04.529Z,29.82
2022-08-19T11:28:04.477Z,29.58
2022-08-19T11:29:04.459Z,29.48
2022-08-19T11:30:04.439Z,29.45
2022-08-19T11:31:04.439Z,29.51
2022-08-19T11:32:04.418Z,29.71
2022-08-19T11:33:04.408Z,29.97
2022-08-19T11:34:04.398Z,30.10
2022-08-19T11:35:04.378Z,30.13
2022-08-19T11:36:04.391Z,30.10
2022-08-19T11:37:04.358Z,30.13
2022-08-19T11:38:08.252Z,30.23
2022-08-19T11:39:05.330Z,30.37
2022-08-19T11:40:04.377Z,30.53
2022-08-19T11:41:04.365Z,30.65
2022-08-19T11:42:04.292Z,30.80
2022-08-19T11:43:04.281Z,30.94
2022-08-19T11:44:04.268Z,31.07
2022-08-19T11:45:04.248Z,31.25
2022-08-19T11:46:04.259Z,31.32
2022-08-19T11:47:09.197Z,31.39
2022-08-19T11:48:05.219Z,31.36
2022-08-19T11:49:04.209Z,31.26
2022-08-19T11:50:04.199Z,31.31
2022-08-19T11:51:04.197Z,31.38
2022-08-19T11:52:04.169Z,31.35
2022-08-19T11:53:04.150Z,31.32
2022-08-19T11:54:04.149Z,31.35
2022-08-19T11:55:04.128Z,31.46
2022-08-19T11:56:04.128Z,31.69
2022-08-19T11:57:04.099Z,31.78
2022-08-19T11:58:04.097Z,31.86
2022-08-19T11:59:04.099Z,31.93
2022-08-19T12:00:04.070Z,32.13
2022-08-19T12:01:04.084Z,32.30
2022-08-19T12:02:04.048Z,32.41
2022-08-19T12:03:04.030Z,32.56
2022-08-19T12:04:04.058Z,32.72
2022-08-19T12:05:04.009Z,32.63
2022-08-19T12:06:04.018Z,32.47
2022-08-19T12:07:03.990Z,32.28
2022-08-19T12:08:03.982Z,32.03
2022-08-19T12:09:03.950Z,31.86
2022-08-19T12:10:03.949Z,31.80
2022-08-19T12:11:03.940Z,31.81
2022-08-19T12:12:03.919Z,32.00
2022-08-19T12:13:03.898Z,32.08
2022-08-19T12:14:03.889Z,31.91
2022-08-19T12:15:03.880Z,31.88
2022-08-19T12:16:03.880Z,31.88
2022-08-19T12:17:03.849Z,31.91
2022-08-19T12:18:03.850Z,32.01
2022-08-19T12:19:03.824Z,32.21
2022-08-19T12:20:03.820Z,32.43
2022-08-19T12:21:03.812Z,32.48
2022-08-19T12:22:03.793Z,32.50
2022-08-19T12:23:03.775Z,32.50
2022-08-19T12:24:03.768Z,32.47
2022-08-19T12:25:03.749Z,32.52
2022-08-19T12:26:03.758Z,32.26
2022-08-19T12:27:03.730Z,32.22
2022-08-19T12:28:04.153Z,32.19
2022-08-19T12:29:03.701Z,32.13
2022-08-19T12:30:03.703Z,32.22
2022-08-19T12:31:03.682Z,32.18
2022-08-19T12:32:03.993Z,32.18
2022-08-19T12:33:03.650Z,32.01
2022-08-19T12:34:03.639Z,31.86
2022-08-19T12:35:03.620Z,31.85
2022-08-19T12:36:03.640Z,31.93
2022-08-19T12:37:03.601Z,31.81
2022-08-19T12:38:03.625Z,31.68
2022-08-19T12:39:03.580Z,31.80
2022-08-19T12:40:03.608Z,32.07
2022-08-19T12:41:03.573Z,32.40
2022-08-19T12:42:03.540Z,32.65
2022-08-19T12:43:03.522Z,32.84
2022-08-19T12:44:03.512Z,32.89
2022-08-19T12:45:03.501Z,32.74
2022-08-19T12:46:03.491Z,32.60
2022-08-19T12:47:04.751Z,32.40
2022-08-19T12:48:32.895Z,32.43
2022-08-19T12:49:05.140Z,32.28
2022-08-19T12:50:06.990Z,31.92
2022-08-19T12:51:03.455Z,31.81
2022-08-19T12:52:03.422Z,31.88
2022-08-19T12:53:03.400Z,31.99